Nelson, Illinois
Current Conditions -  °F | °C
As of 2:35 AM on Sunday 23 Nov 2014 (Local Time) from KSQI Reporting Station
Overcast Overcast  
Wind Chill: 50°   Ceiling: 1000
Heat Index: 50°   Visibility: 5mi
Dew Point: 46°   Wind: 5mph
Humidity: 87%   Direction: 190°S
Pressure: 29.75"   Gusts: NA
Location:  41.8°N, 89.6°W
Report Text: KSQI 230835Z 19004KT 5SM OVC010 10/08 A2975 RMK AO1
Loading
Personal Weather Stations






























Interactive Weather Map New forecast layout! Learn more

10-Day Weather Forecast

Advertisements
Track Severe Weather on mobile